createdAt,value
2022-12-29T00:01:44.057Z,23.88
2022-12-29T00:04:46.565Z,25.20
2022-12-29T00:07:49.103Z,28.85
2022-12-29T00:10:51.570Z,32.63
2022-12-29T00:14:13.364Z,30.15
2022-12-29T00:17:15.987Z,31.97
2022-12-29T00:20:36.888Z,28.80
2022-12-29T00:23:58.205Z,29.02
2022-12-29T00:27:22.111Z,29.80
2022-12-29T00:30:44.375Z,28.95
2022-12-29T00:34:06.398Z,28.85
2022-12-29T00:37:09.949Z,29.60
2022-12-29T00:40:31.007Z,30.70
2022-12-29T00:43:52.060Z,28.08
2022-12-29T00:46:54.574Z,25.15
2022-12-29T00:49:57.201Z,27.42
2022-12-29T00:52:59.620Z,24.23
2022-12-29T00:56:02.225Z,31.25
2022-12-29T00:59:09.074Z,30.98
2022-12-29T01:02:12.101Z,30.87
2022-12-29T01:05:14.899Z,33.50
2022-12-29T01:08:17.417Z,26.58
2022-12-29T01:11:21.186Z,27.00
2022-12-29T01:14:24.063Z,27.42
2022-12-29T01:17:26.683Z,24.52
2022-12-29T01:20:29.670Z,21.25
2022-12-29T01:23:33.403Z,25.83
2022-12-29T01:26:36.038Z,23.52
2022-12-29T01:29:38.551Z,24.20
2022-12-29T01:32:41.382Z,24.23
2022-12-29T01:35:43.846Z,23.30
2022-12-29T01:38:46.725Z,24.48
2022-12-29T01:41:49.244Z,23.40
2022-12-29T01:44:56.038Z,20.37
2022-12-29T01:48:02.759Z,19.13
2022-12-29T01:51:05.342Z,19.55
2022-12-29T01:54:12.916Z,18.98
2022-12-29T01:57:22.465Z,20.33
2022-12-29T02:00:25.245Z,16.50
2022-12-29T02:03:29.642Z,22.50
2022-12-29T02:06:46.216Z,19.52
2022-12-29T02:09:53.572Z,19.92
2022-12-29T02:12:56.097Z,20.20
2022-12-29T02:16:11.812Z,19.67
2022-12-29T02:19:30.179Z,22.40
2022-12-29T02:22:50.870Z,19.20
2022-12-29T02:26:24.218Z,19.98
2022-12-29T02:30:00.826Z,19.98
2022-12-29T02:33:06.446Z,18.40
2022-12-29T02:36:40.194Z,22.33
2022-12-29T02:39:53.400Z,22.33
2022-12-29T02:43:01.516Z,20.13
2022-12-29T02:46:49.749Z,17.30
2022-12-29T02:50:05.159Z,19.85
2022-12-29T02:53:14.321Z,19.17
2022-12-29T02:56:18.233Z,18.20
2022-12-29T02:59:22.721Z,20.63
2022-12-29T03:03:02.318Z,21.48
2022-12-29T03:06:31.433Z,23.73
2022-12-29T03:09:49.118Z,21.00
2022-12-29T03:13:24.310Z,19.83
2022-12-29T03:16:29.412Z,17.80
2022-12-29T03:19:37.371Z,21.50
2022-12-29T03:22:44.220Z,18.42
2022-12-29T03:25:55.695Z,20.15
2022-12-29T03:28:58.504Z,20.40
2022-12-29T03:32:06.373Z,21.70
2022-12-29T03:35:13.210Z,25.63
2022-12-29T03:38:25.202Z,23.27
2022-12-29T03:41:33.219Z,27.50
2022-12-29T03:44:41.957Z,21.75
2022-12-29T03:47:45.680Z,22.80
2022-12-29T03:50:49.041Z,21.80
2022-12-29T03:53:57.032Z,24.20
2022-12-29T03:56:59.603Z,23.83
2022-12-29T04:00:20.827Z,24.67
2022-12-29T04:03:25.732Z,25.45
2022-12-29T04:06:28.405Z,24.30
2022-12-29T04:09:37.075Z,25.13
2022-12-29T04:12:40.032Z,27.00
2022-12-29T04:15:44.507Z,24.58
2022-12-29T04:18:47.078Z,22.27
2022-12-29T04:21:50.033Z,31.20
2022-12-29T04:24:52.725Z,24.23
2022-12-29T04:27:55.786Z,24.20
2022-12-29T04:31:33.543Z,25.38
2022-12-29T04:34:37.284Z,27.10
2022-12-29T04:37:40.213Z,24.58
2022-12-29T04:40:44.158Z,24.70
2022-12-29T04:43:47.513Z,27.23
2022-12-29T04:47:11.836Z,24.63
2022-12-29T04:50:21.395Z,25.57
2022-12-29T04:53:30.926Z,24.77
2022-12-29T04:56:35.291Z,26.48
2022-12-29T04:59:37.921Z,27.65
2022-12-29T05:02:41.384Z,27.75
2022-12-29T05:05:44.140Z,26.45
2022-12-29T05:08:46.872Z,27.10
2022-12-29T05:11:49.385Z,30.77
2022-12-29T05:14:51.947Z,28.33
2022-12-29T05:17:55.025Z,29.27
2022-12-29T05:20:57.993Z,28.08
2022-12-29T05:24:00.560Z,29.17
2022-12-29T05:27:04.061Z,27.80
2022-12-29T05:30:26.811Z,28.58
2022-12-29T05:33:29.403Z,26.77
2022-12-29T05:36:37.564Z,30.42
2022-12-29T05:39:42.049Z,26.77
2022-12-29T05:42:44.823Z,29.27
2022-12-29T05:46:13.410Z,24.33
2022-12-29T05:49:42.268Z,31.80
2022-12-29T05:52:54.238Z,31.58
2022-12-29T05:55:56.717Z,31.80
2022-12-29T05:58:59.462Z,28.00
2022-12-29T06:02:02.356Z,28.13
2022-12-29T06:05:05.206Z,31.70
2022-12-29T06:08:07.841Z,27.92
2022-12-29T06:11:10.977Z,31.23
2022-12-29T06:14:15.045Z,33.30
2022-12-29T06:17:18.331Z,33.30
2022-12-29T06:20:20.982Z,38.00
2022-12-29T06:23:23.604Z,33.08
2022-12-29T06:26:26.055Z,38.40
2022-12-29T06:29:28.972Z,32.75
2022-12-29T06:32:33.688Z,30.30
2022-12-29T06:35:39.973Z,31.48
2022-12-29T06:38:42.352Z,30.92
2022-12-29T06:41:44.909Z,37.25
2022-12-29T06:45:16.501Z,34.88
2022-12-29T06:48:19.911Z,34.50
2022-12-29T06:51:22.365Z,33.78
2022-12-29T06:54:24.853Z,40.38
2022-12-29T06:57:27.660Z,37.17
2022-12-29T07:00:30.227Z,36.45
2022-12-29T07:03:32.992Z,40.47
2022-12-29T07:06:35.516Z,40.55
2022-12-29T07:09:37.990Z,39.65
2022-12-29T07:12:40.672Z,42.08
2022-12-29T07:15:43.129Z,39.10
2022-12-29T07:18:45.657Z,40.43
2022-12-29T07:21:48.342Z,39.03
2022-12-29T07:24:51.068Z,39.88
2022-12-29T07:27:54.836Z,37.83
2022-12-29T07:30:57.784Z,35.72
2022-12-29T07:34:00.264Z,37.83
2022-12-29T07:37:02.661Z,40.50
2022-12-29T07:40:06.105Z,40.75
2022-12-29T07:43:08.635Z,43.78
2022-12-29T07:46:55.075Z,46.78
2022-12-29T07:49:40.351Z,45.83
2022-12-29T07:52:43.974Z,41.00
2022-12-29T07:55:46.500Z,41.53
2022-12-29T07:58:49.001Z,36.30
2022-12-29T08:01:51.910Z,35.05
2022-12-29T08:04:54.519Z,39.25
2022-12-29T08:07:57.928Z,42.20
2022-12-29T08:11:00.685Z,42.37
2022-12-29T08:14:03.311Z,42.17
2022-12-29T08:17:05.805Z,45.22
2022-12-29T08:20:09.031Z,41.25
2022-12-29T08:23:11.508Z,43.00
2022-12-29T08:26:14.183Z,38.08
2022-12-29T08:29:16.728Z,36.42
2022-12-29T08:32:19.541Z,39.47
2022-12-29T08:35:21.967Z,41.10
2022-12-29T08:38:24.429Z,38.10
2022-12-29T08:41:26.957Z,39.97
2022-12-29T08:44:29.670Z,37.23
2022-12-29T08:47:32.163Z,37.97
2022-12-29T08:50:34.943Z,34.53
2022-12-29T08:53:37.577Z,36.20
2022-12-29T08:56:40.057Z,38.30
2022-12-29T08:59:42.649Z,33.15
2022-12-29T09:02:47.403Z,35.00
2022-12-29T09:05:54.857Z,35.00
2022-12-29T09:08:57.401Z,39.97
2022-12-29T09:11:59.876Z,37.78
2022-12-29T09:15:03.010Z,38.80
2022-12-29T09:18:06.429Z,39.80
2022-12-29T09:21:10.531Z,36.37
2022-12-29T09:24:13.007Z,33.67
2022-12-29T09:27:15.467Z,33.92
2022-12-29T09:30:18.219Z,37.65
2022-12-29T09:33:20.903Z,34.70
2022-12-29T09:36:23.464Z,28.85
2022-12-29T09:39:27.413Z,32.28
2022-12-29T09:43:02.309Z,32.08
2022-12-29T09:46:21.052Z,33.37
2022-12-29T09:49:40.811Z,30.23
2022-12-29T09:52:53.513Z,29.10
2022-12-29T09:55:59.795Z,29.63
2022-12-29T09:59:09.654Z,25.90
2022-12-29T10:02:30.804Z,27.27
2022-12-29T10:05:49.515Z,28.48
2022-12-29T10:09:29.008Z,26.13
2022-12-29T10:12:47.471Z,25.20
2022-12-29T10:15:59.933Z,24.83
2022-12-29T10:19:33.208Z,23.00
2022-12-29T10:22:57.218Z,24.73
2022-12-29T10:26:02.161Z,26.70
2022-12-29T10:29:07.826Z,26.10
2022-12-29T10:32:46.562Z,29.07
2022-12-29T10:35:49.252Z,23.83
2022-12-29T10:39:15.523Z,25.98
2022-12-29T10:42:34.207Z,23.73
2022-12-29T10:45:36.749Z,25.13
2022-12-29T10:48:40.144Z,23.77
2022-12-29T10:51:45.632Z,27.02
2022-12-29T10:54:56.148Z,23.50
2022-12-29T10:58:05.892Z,24.13
2022-12-29T11:01:13.077Z,26.13
2022-12-29T11:04:38.992Z,22.40
2022-12-29T11:07:41.524Z,26.55
2022-12-29T11:10:46.259Z,23.42
2022-12-29T11:13:51.905Z,23.98
2022-12-29T11:16:59.931Z,22.02
2022-12-29T11:20:40.674Z,21.10
2022-12-29T11:23:43.480Z,23.23
2022-12-29T11:26:46.091Z,22.92
2022-12-29T11:29:49.793Z,23.88
2022-12-29T11:32:55.137Z,25.17
2022-12-29T11:36:07.100Z,23.70
2022-12-29T11:39:39.891Z,22.88
2022-12-29T11:42:48.720Z,21.17
2022-12-29T11:45:53.674Z,21.30
2022-12-29T11:48:59.699Z,24.55
2022-12-29T11:52:02.475Z,24.50
2022-12-29T11:55:08.226Z,21.70
2022-12-29T11:58:16.843Z,24.67
2022-12-29T12:01:38.058Z,24.15
2022-12-29T12:04:41.307Z,20.90
2022-12-29T12:07:47.729Z,25.00
2022-12-29T12:11:14.880Z,25.35
2022-12-29T12:14:31.753Z,23.10
2022-12-29T12:18:03.771Z,23.27
2022-12-29T12:21:45.823Z,24.25
2022-12-29T12:24:55.172Z,22.10
2022-12-29T12:28:10.747Z,23.38
2022-12-29T12:31:26.713Z,24.52
2022-12-29T12:34:36.656Z,24.33
2022-12-29T12:37:52.799Z,25.67
2022-12-29T12:41:01.096Z,25.83
2022-12-29T12:44:14.273Z,24.23
2022-12-29T12:47:24.496Z,26.02
2022-12-29T12:50:36.700Z,24.90
2022-12-29T12:53:54.722Z,25.42
2022-12-29T12:57:33.856Z,27.47
2022-12-29T13:00:58.181Z,24.90
2022-12-29T13:04:31.701Z,25.63
2022-12-29T13:08:02.366Z,25.05
2022-12-29T13:11:33.054Z,27.65
2022-12-29T13:14:41.207Z,27.50
2022-12-29T13:17:51.147Z,26.77
2022-12-29T13:21:03.279Z,27.52
2022-12-29T13:24:32.619Z,28.27
2022-12-29T13:27:44.892Z,25.00
2022-12-29T13:30:53.491Z,24.47
2022-12-29T13:34:39.348Z,29.65
2022-12-29T13:37:51.874Z,29.30
2022-12-29T13:41:01.288Z,27.20
2022-12-29T13:44:06.240Z,26.20
2022-12-29T13:47:21.579Z,25.17
2022-12-29T13:50:28.424Z,24.63
2022-12-29T13:54:04.525Z,25.60
2022-12-29T13:57:32.358Z,27.27
2022-12-29T14:00:47.823Z,25.65
2022-12-29T14:03:56.359Z,24.37
2022-12-29T14:07:07.184Z,26.63
2022-12-29T14:10:36.505Z,27.08
2022-12-29T14:13:41.788Z,28.70
2022-12-29T14:16:44.766Z,26.65
2022-12-29T14:19:52.478Z,30.17
2022-12-29T14:23:17.033Z,30.85
2022-12-29T14:26:31.297Z,29.80
2022-12-29T14:29:39.561Z,28.15
2022-12-29T14:33:02.471Z,30.77
2022-12-29T14:36:27.884Z,33.57
2022-12-29T14:39:40.852Z,31.17
2022-12-29T14:42:44.430Z,31.83
2022-12-29T14:45:55.482Z,34.03
2022-12-29T14:49:02.100Z,39.38
2022-12-29T14:52:08.598Z,37.67
2022-12-29T14:55:17.281Z,36.08
2022-12-29T14:58:28.254Z,34.97
2022-12-29T15:01:34.132Z,36.80
2022-12-29T15:04:36.899Z,36.50
2022-12-29T15:07:41.142Z,38.97
2022-12-29T15:10:48.742Z,36.55
2022-12-29T15:13:51.810Z,45.35
2022-12-29T15:16:54.456Z,38.07
2022-12-29T15:19:59.156Z,37.70
2022-12-29T15:23:16.344Z,39.00
2022-12-29T15:26:23.454Z,41.75
2022-12-29T15:29:43.210Z,41.93
2022-12-29T15:32:46.821Z,43.40
2022-12-29T15:35:54.070Z,42.22
2022-12-29T15:39:00.037Z,39.85
2022-12-29T15:42:11.722Z,42.67
2022-12-29T15:45:15.400Z,46.50
2022-12-29T15:48:22.690Z,48.85
2022-12-29T15:51:38.341Z,45.92
2022-12-29T15:54:43.977Z,42.30
2022-12-29T15:57:47.723Z,44.30
2022-12-29T16:01:01.949Z,41.35
2022-12-29T16:04:07.659Z,42.80
2022-12-29T16:07:34.386Z,46.80
2022-12-29T16:10:43.755Z,48.47
2022-12-29T16:13:46.272Z,48.72
2022-12-29T16:16:50.952Z,45.90
2022-12-29T16:19:59.406Z,47.23
2022-12-29T16:23:02.143Z,50.75
2022-12-29T16:26:08.817Z,47.47
2022-12-29T16:29:14.503Z,47.00
2022-12-29T16:32:29.434Z,44.65
2022-12-29T16:35:47.715Z,48.60
2022-12-29T16:38:50.322Z,48.65
2022-12-29T16:41:54.549Z,59.30
2022-12-29T16:45:21.945Z,56.30
2022-12-29T16:48:32.013Z,58.28
2022-12-29T16:51:37.589Z,55.65
2022-12-29T16:54:41.235Z,56.00
2022-12-29T16:57:45.587Z,56.30
2022-12-29T17:00:48.431Z,58.90
2022-12-29T17:03:54.817Z,63.80
2022-12-29T17:06:57.404Z,73.53
2022-12-29T17:10:00.630Z,75.13
2022-12-29T17:13:03.190Z,72.57
2022-12-29T17:16:11.570Z,73.45
2022-12-29T17:19:27.731Z,76.50
2022-12-29T17:22:31.028Z,71.30
2022-12-29T17:25:37.451Z,65.97
2022-12-29T17:28:40.179Z,63.30
2022-12-29T17:31:42.814Z,58.33
2022-12-29T17:34:45.438Z,65.47
2022-12-29T17:37:49.216Z,58.08
2022-12-29T17:40:52.105Z,60.40
2022-12-29T17:43:54.622Z,61.58
2022-12-29T17:46:57.132Z,53.72
2022-12-29T17:50:00.344Z,61.80
2022-12-29T17:53:12.284Z,58.60
2022-12-29T17:56:14.886Z,63.53
2022-12-29T17:59:18.534Z,54.80
2022-12-29T18:02:30.709Z,56.58
2022-12-29T18:05:33.600Z,60.97
2022-12-29T18:08:36.761Z,59.33
2022-12-29T18:11:41.839Z,54.88
2022-12-29T18:14:44.365Z,58.37
2022-12-29T18:17:47.344Z,62.70
2022-12-29T18:20:52.436Z,62.75
2022-12-29T18:23:55.656Z,64.20
2022-12-29T18:26:58.388Z,60.63
2022-12-29T18:30:00.995Z,62.60
2022-12-29T18:33:04.078Z,54.92
2022-12-29T18:36:06.875Z,55.88
2022-12-29T18:39:11.342Z,56.72
2022-12-29T18:42:18.476Z,54.20
2022-12-29T18:45:22.931Z,55.22
2022-12-29T18:48:25.329Z,49.93
2022-12-29T18:51:27.855Z,57.22
2022-12-29T18:54:32.559Z,48.85
2022-12-29T18:57:35.079Z,49.83
2022-12-29T19:00:38.325Z,47.23
2022-12-29T19:03:40.821Z,49.53
2022-12-29T19:06:43.926Z,47.58
2022-12-29T19:09:46.755Z,44.30
2022-12-29T19:12:50.683Z,48.93
2022-12-29T19:15:53.317Z,44.83
2022-12-29T19:19:08.820Z,50.80
2022-12-29T19:22:11.645Z,58.00
2022-12-29T19:25:14.402Z,53.03
2022-12-29T19:28:28.267Z,56.20
2022-12-29T19:31:30.821Z,53.22
2022-12-29T19:34:33.585Z,51.50
2022-12-29T19:37:40.248Z,52.67
2022-12-29T19:40:45.296Z,54.17
2022-12-29T19:43:48.806Z,62.25
2022-12-29T19:46:51.421Z,58.65
2022-12-29T19:49:54.006Z,62.23
2022-12-29T19:53:04.789Z,51.65
2022-12-29T19:56:09.081Z,47.63
2022-12-29T19:59:11.868Z,54.50
2022-12-29T20:02:41.541Z,53.97
2022-12-29T20:05:48.975Z,45.90
2022-12-29T20:08:51.529Z,48.95
2022-12-29T20:11:54.073Z,57.08
2022-12-29T20:14:57.582Z,54.47
2022-12-29T20:18:15.626Z,56.88
2022-12-29T20:21:23.344Z,58.83
2022-12-29T20:24:25.839Z,58.50
2022-12-29T20:27:28.293Z,62.53
2022-12-29T20:30:31.105Z,62.95
2022-12-29T20:33:35.271Z,77.43
2022-12-29T20:36:40.530Z,75.32
2022-12-29T20:39:43.775Z,75.63
2022-12-29T20:42:46.286Z,77.35
2022-12-29T20:45:48.788Z,67.43
2022-12-29T20:48:51.720Z,66.30
2022-12-29T20:52:09.886Z,61.70
2022-12-29T20:55:12.475Z,64.63
2022-12-29T20:58:24.236Z,68.43
2022-12-29T21:01:27.489Z,65.72
2022-12-29T21:04:49.939Z,68.82
2022-12-29T21:07:53.538Z,66.97
2022-12-29T21:10:58.839Z,100.53
2022-12-29T21:14:01.651Z,82.85
2022-12-29T21:17:04.809Z,84.93
2022-12-29T21:20:08.007Z,89.85
2022-12-29T21:23:10.607Z,94.65
2022-12-29T21:26:21.414Z,83.25
2022-12-29T21:29:24.157Z,75.67
2022-12-29T21:32:27.524Z,84.72
2022-12-29T21:35:30.377Z,76.55
2022-12-29T21:38:32.966Z,78.15
2022-12-29T21:41:35.439Z,89.37
2022-12-29T21:44:56.743Z,83.18
2022-12-29T21:48:23.131Z,78.00
2022-12-29T21:51:44.276Z,84.47
2022-12-29T21:55:02.028Z,85.22
2022-12-29T21:58:23.016Z,88.30
2022-12-29T22:01:45.730Z,95.28
2022-12-29T22:05:06.881Z,90.13
2022-12-29T22:08:27.717Z,76.65
2022-12-29T22:11:48.745Z,76.63
2022-12-29T22:14:51.136Z,75.68
2022-12-29T22:17:54.840Z,78.73
2022-12-29T22:20:57.299Z,70.90
2022-12-29T22:24:00.780Z,79.57
2022-12-29T22:27:03.299Z,83.82
2022-12-29T22:30:08.138Z,76.40
2022-12-29T22:33:10.615Z,78.50
2022-12-29T22:36:13.254Z,76.47
2022-12-29T22:39:16.304Z,74.07
2022-12-29T22:42:19.111Z,76.97
2022-12-29T22:45:21.989Z,72.72
2022-12-29T22:48:24.807Z,75.55
2022-12-29T22:51:27.437Z,78.20
2022-12-29T22:54:30.228Z,80.93
2022-12-29T22:57:33.274Z,74.80
2022-12-29T23:00:35.692Z,68.70
2022-12-29T23:03:38.669Z,70.97
2022-12-29T23:06:41.433Z,65.38
2022-12-29T23:09:43.897Z,61.20
2022-12-29T23:12:46.605Z,65.00
2022-12-29T23:15:49.490Z,67.28
2022-12-29T23:18:52.426Z,64.05
2022-12-29T23:21:55.019Z,63.70
2022-12-29T23:24:57.509Z,70.00
2022-12-29T23:28:00.016Z,68.25
2022-12-29T23:31:02.533Z,61.28
2022-12-29T23:34:06.327Z,62.10
2022-12-29T23:37:08.750Z,61.17
2022-12-29T23:40:12.040Z,61.83
2022-12-29T23:43:14.851Z,61.42
2022-12-29T23:46:23.726Z,63.23
2022-12-29T23:49:26.261Z,62.50
2022-12-29T23:52:29.212Z,59.70
2022-12-29T23:55:31.689Z,56.43
2022-12-29T23:58:35.650Z,57.22
